Time;durP1;ratioP1;P1;durP2;ratioP2;P2;SDS_P1;SDS_P2;PMS_P1;PMS_P2;Temp;Humidity;BMP_temperature;BMP_pressure;BME280_temperature;BME280_humidity;BME280_pressure;Samples;Min_cycle;Max_cycle;Signal;HPM_P1;HPM_P2
2023/08/11 00:01:50;;;;;;;112.65;75.22;;;27.00;99.90;;;;;;5091434;28;20044;-66
2023/08/11 00:04:18;;;;;;;95.18;61.03;;;26.90;99.90;;;;;;5091282;28;20385;-66
2023/08/11 00:06:45;;;;;;;84.90;57.83;;;26.80;99.90;;;;;;5091468;28;20044;-66
2023/08/11 00:09:13;;;;;;;83.40;54.22;;;26.90;99.90;;;;;;5091721;28;20035;-65
2023/08/11 00:11:41;;;;;;;103.03;56.30;;;26.90;99.90;;;;;;5091557;28;20024;-66
2023/08/11 00:14:07;;;;;;;93.75;58.17;;;27.00;99.90;;;;;;5091652;28;20028;-67
2023/08/11 00:16:34;;;;;;;91.60;57.42;;;27.00;99.90;;;;;;5091675;28;20166;-67
2023/08/11 00:19:01;;;;;;;88.03;58.03;;;27.00;99.90;;;;;;5091756;28;20032;-67
2023/08/11 00:21:27;;;;;;;77.88;55.90;;;27.20;99.90;;;;;;5091821;28;20023;-65
2023/08/11 00:23:54;;;;;;;87.65;57.72;;;27.20;99.90;;;;;;5093520;28;20032;-64
2023/08/11 00:26:20;;;;;;;80.93;56.38;;;27.20;99.90;;;;;;5095095;28;20052;-64
2023/08/11 00:28:48;;;;;;;83.25;55.50;;;27.30;99.90;;;;;;5095292;28;20023;-64
2023/08/11 00:31:15;;;;;;;82.95;59.25;;;27.30;99.90;;;;;;5095504;28;20428;-64
2023/08/11 00:33:46;;;;;;;94.32;65.43;;;27.30;99.90;;;;;;5095537;28;20487;-65
2023/08/11 00:36:15;;;;;;;91.78;64.63;;;27.30;99.90;;;;;;5095458;28;20035;-64
2023/08/11 00:38:41;;;;;;;98.15;69.47;;;27.30;99.90;;;;;;5095401;28;20117;-65
2023/08/11 00:41:08;;;;;;;83.43;60.72;;;27.30;99.90;;;;;;5095098;28;20054;-63
2023/08/11 00:43:35;;;;;;;90.63;62.22;;;27.40;99.90;;;;;;5094981;28;20032;-63
2023/08/11 00:46:13;;;;;;;84.43;58.38;;;27.50;99.90;;;;;;5094956;28;20111;-63
2023/08/11 00:48:43;;;;;;;78.72;55.25;;;27.50;99.90;;;;;;5094923;28;20035;-64
2023/08/11 00:51:15;;;;;;;84.85;57.25;;;27.60;99.90;;;;;;5095034;28;20509;-63
2023/08/11 00:53:42;;;;;;;90.78;59.55;;;27.70;99.90;;;;;;5094952;28;20478;-65
2023/08/11 00:56:08;;;;;;;83.05;56.53;;;27.70;99.90;;;;;;5094798;28;20036;-65
2023/08/11 00:58:36;;;;;;;72.15;54.67;;;27.70;99.90;;;;;;5095043;28;20028;-64
2023/08/11 01:01:04;;;;;;;75.30;52.50;;;27.80;99.90;;;;;;5094720;28;20073;-64
2023/08/11 01:03:31;;;;;;;77.28;53.95;;;27.90;99.90;;;;;;5094604;28;20035;-64
2023/08/11 01:06:08;;;;;;;75.15;51.33;;;27.90;99.90;;;;;;5094711;28;20032;-66
2023/08/11 01:08:56;;;;;;;94.85;60.72;;;28.00;99.90;;;;;;5094459;28;20405;-65
2023/08/11 01:11:33;;;;;;;84.65;56.60;;;28.10;99.90;;;;;;5094637;28;20059;-64
2023/08/11 01:14:24;;;;;;;77.75;53.55;;;28.10;99.90;;;;;;5094719;28;20758;-66
2023/08/11 01:16:51;;;;;;;73.30;50.47;;;28.20;99.90;;;;;;5093820;28;20386;-68
2023/08/11 01:19:28;;;;;;;66.63;46.78;;;28.30;99.90;;;;;;5094966;28;20099;-65
2023/08/11 01:21:59;;;;;;;69.85;45.17;;;28.40;99.90;;;;;;5094339;28;20440;-65
2023/08/11 01:24:28;;;;;;;56.22;39.97;;;28.40;99.90;;;;;;5094307;28;20024;-64
2023/08/11 01:26:57;;;;;;;57.08;38.72;;;28.40;99.90;;;;;;5094011;28;20052;-66
2023/08/11 01:29:25;;;;;;;54.80;36.50;;;28.50;99.90;;;;;;5094043;28;20032;-65
2023/08/11 01:31:51;;;;;;;65.60;39.58;;;28.60;99.90;;;;;;5093952;28;20107;-65
2023/08/11 01:34:18;;;;;;;55.45;38.83;;;28.60;99.90;;;;;;5093845;28;20103;-69
2023/08/11 01:36:44;;;;;;;56.95;37.10;;;28.60;99.90;;;;;;5093765;28;20390;-64
2023/08/11 01:39:11;;;;;;;51.20;34.38;;;28.70;99.90;;;;;;5093938;28;20034;-64
2023/08/11 01:41:39;;;;;;;54.38;34.97;;;28.70;99.90;;;;;;5093182;28;20574;-63
2023/08/11 01:44:06;;;;;;;56.38;34.40;;;28.70;99.90;;;;;;5093784;28;20027;-64
2023/08/11 01:46:34;;;;;;;51.45;35.95;;;28.80;99.90;;;;;;5093604;28;20098;-64
2023/08/11 01:49:01;;;;;;;59.47;33.25;;;28.80;99.90;;;;;;5094156;28;20036;-65
2023/08/11 01:51:28;;;;;;;51.47;31.40;;;28.90;99.90;;;;;;5094713;28;20032;-64
2023/08/11 01:53:55;;;;;;;50.67;31.95;;;28.90;99.90;;;;;;5094691;28;20031;-64
2023/08/11 01:56:22;;;;;;;49.17;32.15;;;28.90;99.90;;;;;;5094229;28;20023;-64
2023/08/11 01:58:48;;;;;;;50.92;31.88;;;28.90;99.90;;;;;;5093928;28;20028;-65
2023/08/11 02:01:15;;;;;;;47.38;32.35;;;28.90;99.90;;;;;;5094350;28;20024;-66
2023/08/11 02:03:42;;;;;;;51.15;32.40;;;29.00;99.90;;;;;;5094102;28;20024;-66
2023/08/11 02:06:09;;;;;;;48.58;29.77;;;29.00;99.90;;;;;;5094655;28;20406;-65
2023/08/11 02:08:36;;;;;;;48.75;28.10;;;29.10;99.90;;;;;;5093880;28;20028;-65
2023/08/11 02:11:03;;;;;;;45.90;27.27;;;29.10;99.90;;;;;;5094062;28;20050;-65
2023/08/11 02:13:30;;;;;;;41.47;26.42;;;29.10;99.90;;;;;;5094023;28;20047;-66
2023/08/11 02:15:56;;;;;;;40.47;27.17;;;29.20;99.90;;;;;;5093992;28;20024;-66
2023/08/11 02:18:23;;;;;;;34.85;23.38;;;29.30;99.90;;;;;;5094324;28;20026;-65
2023/08/11 02:20:49;;;;;;;34.05;23.17;;;29.40;99.90;;;;;;5094093;28;20477;-66
2023/08/11 02:23:16;;;;;;;37.05;25.45;;;29.50;99.90;;;;;;5093944;28;20028;-66
2023/08/11 02:25:42;;;;;;;34.88;24.35;;;29.60;99.90;;;;;;5092732;28;20040;-66
2023/08/11 02:28:09;;;;;;;38.83;26.27;;;29.60;99.90;;;;;;5091688;28;20020;-65
2023/08/11 02:30:36;;;;;;;37.33;25.67;;;29.70;99.90;;;;;;5092263;28;20489;-65
2023/08/11 02:33:02;;;;;;;42.28;26.92;;;29.70;99.90;;;;;;5092850;28;20038;-66
2023/08/11 02:35:29;;;;;;;51.33;28.83;;;29.80;99.90;;;;;;5092919;28;20035;-67
2023/08/11 02:37:55;;;;;;;39.65;28.00;;;29.80;99.90;;;;;;5093524;28;20378;-65
2023/08/11 02:40:22;;;;;;;44.45;27.67;;;29.80;99.90;;;;;;5093805;28;20024;-67
2023/08/11 02:42:58;;;;;;;39.13;26.02;;;29.90;99.90;;;;;;5093740;28;20497;-66
2023/08/11 02:45:25;;;;;;;37.08;28.70;;;30.00;99.90;;;;;;5093548;28;20022;-66
2023/08/11 02:47:52;;;;;;;55.63;33.65;;;30.10;99.90;;;;;;5093445;28;20031;-67
2023/08/11 02:50:19;;;;;;;48.13;28.55;;;30.10;99.90;;;;;;5093961;28;20042;-67
2023/08/11 02:52:46;;;;;;;42.97;28.90;;;30.10;99.90;;;;;;5093395;28;20530;-66
2023/08/11 02:55:12;;;;;;;43.75;28.48;;;30.20;99.90;;;;;;5093541;28;20028;-67
2023/08/11 02:57:39;;;;;;;36.30;25.30;;;30.20;99.90;;;;;;5093394;28;20024;-67
2023/08/11 03:00:10;;;;;;;30.63;23.23;;;30.30;99.90;;;;;;5093600;28;20024;-67
2023/08/11 03:02:36;;;;;;;31.13;22.48;;;30.40;99.90;;;;;;5093404;28;20111;-68
2023/08/11 03:05:03;;;;;;;38.40;25.70;;;30.40;99.90;;;;;;5093744;28;20062;-68
2023/08/11 03:07:31;;;;;;;37.88;25.10;;;30.40;99.90;;;;;;5093205;28;20478;-71
2023/08/11 03:09:57;;;;;;;43.65;27.92;;;30.40;99.90;;;;;;5093378;28;20053;-68
2023/08/11 03:12:24;;;;;;;42.22;27.40;;;30.50;99.90;;;;;;5093424;28;20024;-66
2023/08/11 03:14:50;;;;;;;38.35;25.23;;;30.50;99.90;;;;;;5093215;28;20020;-67
2023/08/11 03:17:17;;;;;;;43.72;26.77;;;30.60;99.90;;;;;;5093283;28;20036;-68
2023/08/11 03:19:44;;;;;;;37.05;24.58;;;30.60;99.90;;;;;;5093341;28;20032;-67
2023/08/11 03:22:10;;;;;;;31.42;23.55;;;30.70;99.90;;;;;;5093287;28;20020;-68
2023/08/11 03:24:37;;;;;;;54.47;40.33;;;30.80;99.90;;;;;;5093011;28;20390;-69
2023/08/11 03:27:04;;;;;;;45.08;36.38;;;30.90;99.90;;;;;;5093086;28;20462;-67
2023/08/11 03:29:31;;;;;;;48.83;30.90;;;30.90;99.90;;;;;;5093124;28;20397;-68
2023/08/11 03:31:57;;;;;;;107.38;71.38;;;30.90;99.90;;;;;;5093279;28;20031;-70
2023/08/11 03:34:24;;;;;;;41.03;28.65;;;30.90;99.90;;;;;;5093217;28;20020;-66
2023/08/11 03:36:50;;;;;;;94.78;65.57;;;30.90;99.90;;;;;;5093056;28;20032;-67
2023/08/11 03:39:17;;;;;;;95.95;69.60;;;31.00;99.90;;;;;;5093389;28;20590;-66
2023/08/11 03:41:43;;;;;;;89.70;62.22;;;31.00;99.90;;;;;;5093173;28;20070;-67
2023/08/11 03:44:10;;;;;;;35.65;24.67;;;31.00;99.90;;;;;;5093074;28;20069;-66
2023/08/11 03:46:36;;;;;;;100.55;72.38;;;31.00;99.90;;;;;;5092932;28;20386;-67
2023/08/11 03:49:03;;;;;;;42.72;29.65;;;31.10;99.90;;;;;;5092584;28;20032;-66
2023/08/11 03:51:29;;;;;;;30.17;20.65;;;31.10;99.90;;;;;;5092293;28;20024;-66
2023/08/11 03:53:58;;;;;;;35.08;21.50;;;31.00;99.90;;;;;;5090174;28;20367;-65
2023/08/11 03:56:25;;;;;;;28.55;20.33;;;31.10;99.90;;;;;;5092470;28;20028;-66
2023/08/11 03:58:51;;;;;;;33.20;22.50;;;31.10;99.90;;;;;;5094464;28;20020;-70
2023/08/11 04:01:18;;;;;;;104.32;72.80;;;31.30;99.90;;;;;;5095565;28;20020;-71
2023/08/11 04:03:44;;;;;;;171.25;114.38;;;31.30;99.90;;;;;;5094560;28;20012;-66
2023/08/11 04:06:11;;;;;;;65.53;47.88;;;31.40;99.90;;;;;;5096609;28;20473;-67
2023/08/11 04:08:37;;;;;;;45.28;32.78;;;31.40;99.90;;;;;;5096606;28;20376;-67
2023/08/11 04:11:04;;;;;;;34.38;22.13;;;31.50;99.90;;;;;;5094366;28;20478;-68
2023/08/11 04:13:30;;;;;;;33.10;22.13;;;31.60;99.90;;;;;;5092030;28;20457;-70
2023/08/11 04:15:59;;;;;;;93.32;65.22;;;31.60;99.90;;;;;;5095448;28;20032;-66
2023/08/11 04:18:25;;;;;;;93.47;63.80;;;31.60;99.90;;;;;;5096262;28;20027;-67
2023/08/11 04:20:52;;;;;;;76.72;56.70;;;31.60;99.90;;;;;;5096388;28;20009;-66
2023/08/11 04:23:19;;;;;;;71.68;52.35;;;31.50;99.90;;;;;;5095595;28;20013;-67
2023/08/11 04:25:45;;;;;;;42.25;28.50;;;31.60;99.90;;;;;;5095742;28;20052;-65
2023/08/11 04:28:12;;;;;;;31.73;22.08;;;31.60;99.90;;;;;;5095978;28;20031;-65
2023/08/11 04:30:39;;;;;;;33.35;21.40;;;31.60;99.90;;;;;;5095615;28;20024;-65
2023/08/11 04:33:06;;;;;;;33.17;21.58;;;31.60;99.90;;;;;;5095374;28;20032;-65
2023/08/11 04:35:33;;;;;;;39.33;25.90;;;31.70;99.90;;;;;;5094893;28;20133;-65
2023/08/11 04:37:59;;;;;;;42.20;25.33;;;31.70;99.90;;;;;;5095016;28;20039;-66
2023/08/11 04:40:26;;;;;;;34.30;23.98;;;31.80;99.90;;;;;;5095003;28;20052;-65
2023/08/11 04:42:53;;;;;;;31.40;23.30;;;31.80;99.90;;;;;;5094773;28;20020;-64
2023/08/11 04:45:19;;;;;;;39.08;22.23;;;31.70;99.90;;;;;;5095032;28;20020;-66
2023/08/11 04:47:46;;;;;;;28.40;21.13;;;31.80;99.90;;;;;;5094952;28;20023;-65
2023/08/11 04:50:12;;;;;;;30.02;20.90;;;31.80;99.90;;;;;;5094951;28;20306;-66
2023/08/11 04:52:39;;;;;;;39.47;23.40;;;31.90;99.90;;;;;;5094936;28;20424;-66
2023/08/11 04:55:07;;;;;;;29.15;21.77;;;32.00;99.90;;;;;;5094928;28;20032;-66
2023/08/11 04:57:35;;;;;;;29.75;21.70;;;32.10;99.90;;;;;;5095095;28;20458;-65
2023/08/11 05:00:02;;;;;;;28.02;20.15;;;32.00;99.90;;;;;;5094642;28;20103;-66
2023/08/11 05:02:28;;;;;;;33.22;22.50;;;32.00;99.90;;;;;;5074804;28;20017;-66
2023/08/11 05:04:55;;;;;;;31.10;20.23;;;32.10;99.90;;;;;;5074689;28;20025;-66
2023/08/11 05:07:21;;;;;;;31.50;21.08;;;32.20;99.90;;;;;;5077897;28;20142;-66
2023/08/11 05:09:49;;;;;;;29.75;21.02;;;32.20;99.90;;;;;;5091709;28;20024;-66
2023/08/11 05:12:16;;;;;;;31.98;22.27;;;32.20;99.90;;;;;;5094610;28;20030;-66
2023/08/11 05:14:43;;;;;;;32.55;21.48;;;32.20;99.90;;;;;;5094238;28;20050;-66
2023/08/11 05:17:09;;;;;;;34.45;21.63;;;32.20;99.90;;;;;;5095025;28;20035;-67
2023/08/11 05:19:36;;;;;;;30.58;21.80;;;32.40;99.90;;;;;;5061189;22;20476;-68
2023/08/11 05:22:03;;;;;;;28.30;20.23;;;32.40;99.90;;;;;;5034778;28;20052;-66
2023/08/11 05:24:29;;;;;;;29.75;20.55;;;32.50;99.90;;;;;;5034799;28;20045;-67
2023/08/11 05:26:57;;;;;;;27.83;20.27;;;32.60;99.90;;;;;;5034780;28;20511;-67
2023/08/11 05:29:24;;;;;;;31.42;20.42;;;32.70;99.90;;;;;;5034170;28;20029;-66
2023/08/11 05:31:51;;;;;;;35.40;21.00;;;32.70;99.90;;;;;;5034146;28;20492;-67
2023/08/11 05:34:18;;;;;;;29.05;18.98;;;32.70;99.90;;;;;;5034370;28;20033;-66
2023/08/11 05:36:44;;;;;;;25.08;18.95;;;32.60;99.90;;;;;;5034073;28;20028;-67
2023/08/11 05:39:12;;;;;;;25.90;18.92;;;32.70;99.90;;;;;;5033714;28;20502;-65
2023/08/11 05:41:39;;;;;;;31.83;19.33;;;32.80;99.90;;;;;;5033887;28;20025;-64
2023/08/11 05:44:05;;;;;;;26.13;18.25;;;32.90;99.90;;;;;;5031175;28;20392;-65
2023/08/11 05:46:32;;;;;;;30.98;19.15;;;32.90;99.90;;;;;;5033307;28;20071;-67
2023/08/11 05:48:59;;;;;;;31.75;20.80;;;32.90;99.90;;;;;;5033608;28;20041;-65
2023/08/11 05:51:25;;;;;;;29.15;20.50;;;32.90;99.90;;;;;;5033078;28;20557;-66
2023/08/11 05:53:52;;;;;;;29.13;20.25;;;32.90;99.90;;;;;;5033849;28;20079;-65
2023/08/11 05:56:18;;;;;;;30.40;18.80;;;33.00;99.90;;;;;;5033981;28;20116;-65
2023/08/11 05:58:45;;;;;;;30.42;20.45;;;33.10;99.90;;;;;;5033745;28;20022;-65
2023/08/11 06:01:12;;;;;;;30.55;19.30;;;33.20;99.90;;;;;;5033676;28;20022;-65
2023/08/11 06:03:38;;;;;;;25.67;19.38;;;33.20;99.90;;;;;;5042363;28;20440;-68
2023/08/11 06:06:05;;;;;;;28.52;19.50;;;33.30;99.90;;;;;;5053730;28;20028;-66
2023/08/11 06:08:32;;;;;;;29.45;20.27;;;33.30;99.90;;;;;;5053147;28;20118;-66
2023/08/11 06:10:58;;;;;;;35.33;21.60;;;33.30;99.90;;;;;;5053221;28;20031;-65
2023/08/11 06:13:25;;;;;;;29.25;19.48;;;33.20;99.90;;;;;;5053559;28;20504;-66
2023/08/11 06:15:51;;;;;;;28.60;20.77;;;33.20;99.90;;;;;;5043303;28;20033;-66
2023/08/11 06:18:18;;;;;;;30.67;20.73;;;33.10;99.90;;;;;;5024524;28;20101;-65
2023/08/11 06:20:45;;;;;;;27.17;19.23;;;33.10;99.90;;;;;;5021282;28;20514;-66
2023/08/11 06:23:12;;;;;;;28.70;19.92;;;33.00;99.90;;;;;;5023917;28;20430;-67
2023/08/11 06:25:38;;;;;;;29.15;20.98;;;32.90;99.90;;;;;;5022818;28;20041;-67
2023/08/11 06:28:07;;;;;;;26.85;19.85;;;32.90;99.90;;;;;;5022122;28;20033;-67
2023/08/11 06:30:34;;;;;;;30.55;19.55;;;33.00;99.90;;;;;;5023617;28;20407;-67
2023/08/11 06:33:00;;;;;;;37.65;25.92;;;33.00;99.90;;;;;;5022818;28;20480;-67
2023/08/11 06:35:27;;;;;;;70.07;45.45;;;33.10;99.90;;;;;;5023887;28;20021;-68
2023/08/11 06:37:54;;;;;;;85.13;53.15;;;33.20;99.90;;;;;;5031804;28;20079;-68
2023/08/11 06:40:20;;;;;;;43.03;29.48;;;33.20;99.90;;;;;;5023779;28;20448;-67
2023/08/11 06:42:47;;;;;;;25.05;19.27;;;33.30;99.90;;;;;;5004017;28;20104;-66
2023/08/11 06:45:14;;;;;;;27.48;17.75;;;33.30;99.90;;;;;;5023652;28;20425;-66
2023/08/11 06:47:40;;;;;;;24.92;18.23;;;33.20;99.90;;;;;;5024185;28;20086;-67
2023/08/11 06:50:08;;;;;;;28.88;18.83;;;33.30;99.90;;;;;;5026182;28;20061;-67
2023/08/11 06:52:34;;;;;;;32.45;20.90;;;33.40;99.90;;;;;;5020237;28;20033;-67
2023/08/11 06:55:01;;;;;;;26.90;20.25;;;33.50;99.90;;;;;;5022826;28;20013;-68
2023/08/11 06:57:27;;;;;;;27.17;20.02;;;33.40;99.90;;;;;;5020316;28;20038;-66
2023/08/11 06:59:54;;;;;;;26.25;18.48;;;33.20;99.90;;;;;;5022496;28;20480;-68
2023/08/11 07:02:20;;;;;;;26.02;17.38;;;33.20;99.90;;;;;;5022802;28;20038;-70
2023/08/11 07:04:47;;;;;;;27.77;18.27;;;33.20;99.60;;;;;;5021111;28;20102;-67
2023/08/11 07:07:13;;;;;;;25.88;17.95;;;33.20;99.50;;;;;;5025061;28;20025;-68
2023/08/11 07:09:40;;;;;;;27.70;20.08;;;33.30;99.90;;;;;;5028233;28;20021;-67
2023/08/11 07:12:06;;;;;;;25.75;18.48;;;33.40;99.90;;;;;;5023938;28;20039;-67
2023/08/11 07:14:33;;;;;;;29.70;20.05;;;33.50;99.50;;;;;;5023005;28;20057;-69
2023/08/11 07:16:59;;;;;;;36.05;21.90;;;33.50;99.40;;;;;;5022509;28;20029;-68
2023/08/11 07:19:26;;;;;;;24.42;18.60;;;33.50;98.30;;;;;;5052837;28;20503;-69
2023/08/11 07:21:52;;;;;;;27.02;20.20;;;33.50;98.20;;;;;;5052908;28;20025;-68
2023/08/11 07:24:19;;;;;;;27.58;19.88;;;33.40;98.20;;;;;;5052772;28;20475;-68
2023/08/11 07:26:45;;;;;;;36.30;22.35;;;33.40;98.20;;;;;;5053050;28;20108;-69
2023/08/11 07:29:12;;;;;;;32.70;21.42;;;33.40;98.50;;;;;;5053042;28;20021;-68
2023/08/11 07:31:39;;;;;;;23.67;19.45;;;33.30;98.20;;;;;;5049975;28;20041;-72
2023/08/11 07:34:06;;;;;;;27.90;19.48;;;33.30;98.50;;;;;;5035450;28;20124;-68
2023/08/11 07:36:32;;;;;;;26.88;19.08;;;33.40;98.20;;;;;;5035776;28;20025;-69
2023/08/11 07:38:59;;;;;;;25.15;18.13;;;33.50;97.80;;;;;;5036329;28;20100;-67
2023/08/11 07:41:25;;;;;;;25.77;18.10;;;33.60;97.60;;;;;;5027513;28;20443;-68
2023/08/11 07:43:53;;;;;;;24.95;19.67;;;33.80;97.50;;;;;;5030301;28;20392;-67
2023/08/11 07:46:20;;;;;;;25.70;18.92;;;33.90;98.10;;;;;;5029218;28;20018;-67
2023/08/11 07:48:47;;;;;;;26.33;20.00;;;33.90;97.90;;;;;;5030895;28;20036;-66
2023/08/11 07:51:14;;;;;;;25.63;19.08;;;33.80;97.40;;;;;;5027044;28;20037;-67
2023/08/11 07:53:41;;;;;;;31.30;21.30;;;33.70;97.30;;;;;;5028076;28;20021;-67
2023/08/11 07:56:08;;;;;;;33.03;21.77;;;33.60;96.60;;;;;;5020644;28;20072;-66
2023/08/11 07:58:35;;;;;;;214.18;178.68;;;33.50;96.00;;;;;;5036872;28;20101;-65
2023/08/11 08:01:01;;;;;;;23.50;17.02;;;33.50;95.50;;;;;;5036424;28;20032;-67
2023/08/11 08:03:28;;;;;;;25.55;19.42;;;33.60;96.70;;;;;;5035313;28;20029;-69
2023/08/11 08:05:54;;;;;;;24.88;18.23;;;33.70;96.80;;;;;;5031099;28;20494;-65
2023/08/11 08:08:21;;;;;;;25.88;18.90;;;33.80;96.90;;;;;;5035978;28;20025;-66
2023/08/11 08:10:48;;;;;;;39.50;19.20;;;33.80;96.70;;;;;;5036174;28;20031;-68
2023/08/11 08:13:14;;;;;;;28.10;18.80;;;33.90;96.50;;;;;;5036178;28;20033;-68
2023/08/11 08:15:41;;;;;;;59.15;43.40;;;33.90;95.60;;;;;;5036019;28;20026;-67
2023/08/11 08:18:07;;;;;;;32.78;27.95;;;33.80;96.60;;;;;;5034866;28;20079;-68
2023/08/11 08:20:34;;;;;;;64.18;40.17;;;33.70;96.10;;;;;;5036162;28;20017;-67
2023/08/11 08:23:00;;;;;;;53.30;36.88;;;33.60;96.60;;;;;;5036068;28;20551;-67
2023/08/11 08:25:27;;;;;;;29.95;23.30;;;33.70;96.60;;;;;;5035275;28;20017;-66
2023/08/11 08:27:54;;;;;;;26.58;21.00;;;33.80;96.50;;;;;;5035919;28;20032;-66
2023/08/11 08:30:20;;;;;;;77.55;59.72;;;33.80;96.10;;;;;;5035783;28;20100;-67
2023/08/11 08:32:47;;;;;;;741.13;661.50;;;33.80;95.70;;;;;;5035698;28;20095;-66
2023/08/11 08:35:13;;;;;;;562.40;501.13;;;33.80;95.60;;;;;;5035496;28;20036;-65
2023/08/11 08:37:40;;;;;;;436.15;388.05;;;33.80;95.00;;;;;;5035400;28;20029;-67
2023/08/11 08:40:08;;;;;;;34.83;20.83;;;33.80;95.10;;;;;;5035508;28;20440;-66
2023/08/11 08:42:35;;;;;;;354.38;316.55;;;33.80;94.80;;;;;;5035453;28;20022;-66
2023/08/11 08:45:03;;;;;;;275.67;233.23;;;33.80;94.20;;;;;;5034639;28;20468;-65
2023/08/11 08:47:30;;;;;;;372.30;332.13;;;33.70;94.90;;;;;;5035265;28;20029;-66
2023/08/11 08:50:00;;;;;;;964.95;858.50;;;33.70;95.20;;;;;;5033514;28;20040;-66
2023/08/11 08:52:28;;;;;;;1091.55;965.25;;;33.70;95.10;;;;;;5025932;28;20065;-65
2023/08/11 08:54:55;;;;;;;886.50;791.35;;;33.80;95.90;;;;;;5021484;28;20110;-66
2023/08/11 08:57:23;;;;;;;989.03;884.90;;;33.80;95.50;;;;;;5007249;28;20025;-66
2023/08/11 08:59:49;;;;;;;606.10;541.72;;;33.90;95.50;;;;;;5025845;28;20041;-66
2023/08/11 09:02:17;;;;;;;981.53;879.65;;;33.80;95.00;;;;;;5025948;28;20093;-67
2023/08/11 09:04:45;;;;;;;244.43;214.52;;;33.90;95.30;;;;;;5024962;28;20022;-66
2023/08/11 09:07:13;;;;;;;27.42;21.42;;;33.90;95.90;;;;;;5023684;28;20053;-66
2023/08/11 09:09:40;;;;;;;32.50;22.98;;;33.90;95.70;;;;;;5025737;28;20392;-66
2023/08/11 09:12:06;;;;;;;32.67;23.17;;;33.90;95.60;;;;;;5025716;28;20025;-66
2023/08/11 09:14:33;;;;;;;29.20;22.83;;;33.80;95.70;;;;;;5027697;28;20013;-65
2023/08/11 09:17:00;;;;;;;34.13;23.85;;;33.80;95.30;;;;;;5026353;28;20080;-67
2023/08/11 09:19:28;;;;;;;536.67;456.85;;;33.80;95.10;;;;;;5015110;28;20454;-68
2023/08/11 09:21:54;;;;;;;787.80;667.92;;;33.70;94.80;;;;;;5014926;28;20029;-69
2023/08/11 09:24:22;;;;;;;475.88;423.73;;;33.60;94.80;;;;;;5017362;28;20061;-66
2023/08/11 09:26:49;;;;;;;913.97;817.97;;;33.60;94.80;;;;;;5022688;28;20507;-66
2023/08/11 09:29:18;;;;;;;64.03;23.13;;;33.50;94.90;;;;;;5014806;28;20546;-66
2023/08/11 09:31:49;;;;;;;26.77;21.38;;;33.60;94.90;;;;;;5014770;28;20460;-65
2023/08/11 09:34:18;;;;;;;31.33;21.98;;;33.60;95.20;;;;;;5014588;28;20034;-65
2023/08/11 09:36:46;;;;;;;31.27;22.65;;;33.50;95.20;;;;;;5023756;28;20034;-67
2023/08/11 09:39:13;;;;;;;38.92;26.10;;;33.50;95.40;;;;;;5034410;28;20060;-66
2023/08/11 09:41:49;;;;;;;33.58;24.17;;;33.60;95.40;;;;;;5034369;28;20024;-65
2023/08/11 09:44:18;;;;;;;34.10;23.48;;;33.60;95.40;;;;;;5034438;28;20382;-66
2023/08/11 09:46:47;;;;;;;42.78;26.77;;;33.70;96.00;;;;;;5034370;28;20026;-65
2023/08/11 09:49:14;;;;;;;37.33;23.92;;;33.70;96.10;;;;;;5034444;28;20029;-65
2023/08/11 09:51:41;;;;;;;38.75;23.88;;;33.60;95.90;;;;;;5034275;28;20024;-65
2023/08/11 09:54:10;;;;;;;35.13;23.05;;;33.60;95.70;;;;;;5034385;28;20176;-66
2023/08/11 09:56:39;;;;;;;35.00;23.73;;;33.60;95.50;;;;;;5024463;28;20054;-67
2023/08/11 09:59:25;;;;;;;189.90;118.47;;;33.60;95.30;;;;;;5024534;28;20022;-67
2023/08/11 10:01:56;;;;;;;272.63;155.95;;;33.50;95.40;;;;;;5025001;28;20434;-67
2023/08/11 10:04:35;;;;;;;1657.28;999.90;;;33.50;95.40;;;;;;5024660;28;20018;-68
2023/08/11 10:07:07;;;;;;;1727.32;999.90;;;33.50;95.60;;;;;;5024960;28;20017;-68
2023/08/11 10:09:35;;;;;;;1778.40;999.90;;;33.40;95.20;;;;;;5024663;28;20156;-68
2023/08/11 10:12:04;;;;;;;1975.25;999.90;;;33.40;95.60;;;;;;5024252;28;20025;-69
2023/08/11 10:14:35;;;;;;;1999.90;999.90;;;33.30;95.60;;;;;;5024513;28;20026;-69
2023/08/11 10:17:03;;;;;;;1751.35;999.90;;;33.40;95.40;;;;;;5023618;28;20104;-70
2023/08/11 10:19:30;;;;;;;1771.43;999.90;;;33.30;95.50;;;;;;5022962;28;20049;-70
2023/08/11 10:21:57;;;;;;;1623.05;999.90;;;33.30;95.60;;;;;;5030755;28;20468;-69
2023/08/11 10:24:25;;;;;;;1664.32;999.90;;;33.30;95.60;;;;;;5024919;28;20021;-67
2023/08/11 10:26:52;;;;;;;1656.22;999.90;;;33.30;95.70;;;;;;5024338;28;20106;-68
2023/08/11 10:29:19;;;;;;;1807.40;999.90;;;33.30;95.50;;;;;;5022419;28;20065;-69
2023/08/11 10:31:58;;;;;;;1658.05;999.90;;;33.30;95.30;;;;;;5021864;28;20021;-67
2023/08/11 10:34:26;;;;;;;1660.97;999.90;;;33.20;95.50;;;;;;5032272;28;20017;-68
2023/08/11 10:36:57;;;;;;;1599.63;999.90;;;33.20;95.40;;;;;;5030969;28;20472;-68
2023/08/11 10:39:25;;;;;;;1602.57;999.90;;;33.20;95.30;;;;;;5029888;28;20018;-67
2023/08/11 10:41:52;;;;;;;1606.97;999.90;;;33.10;95.70;;;;;;5033295;28;20029;-67
2023/08/11 10:44:20;;;;;;;1608.28;999.90;;;33.10;96.10;;;;;;5033142;28;20026;-67
2023/08/11 10:46:50;;;;;;;1585.15;999.90;;;33.10;96.50;;;;;;5033470;28;20021;-65
2023/08/11 10:49:16;;;;;;;1582.85;999.90;;;33.10;96.80;;;;;;5033305;28;20028;-66
2023/08/11 10:51:43;;;;;;;1598.53;999.90;;;33.10;97.20;;;;;;5032356;28;20039;-67
2023/08/11 10:54:18;;;;;;;1623.22;999.90;;;33.00;97.70;;;;;;5013403;28;20030;-65
2023/08/11 10:56:45;;;;;;;1623.53;999.90;;;32.90;97.90;;;;;;5013520;28;20026;-67
2023/08/11 10:59:12;;;;;;;1610.28;999.90;;;32.80;98.00;;;;;;5015466;28;20029;-66
2023/08/11 11:01:40;;;;;;;1604.35;999.90;;;32.80;98.00;;;;;;5032999;28;20040;-67
2023/08/11 11:04:08;;;;;;;1569.82;999.90;;;32.70;98.40;;;;;;5031226;28;20021;-67
2023/08/11 11:06:35;;;;;;;1577.15;999.90;;;32.60;98.40;;;;;;5032238;28;20040;-66
2023/08/11 11:09:03;;;;;;;1598.90;999.90;;;32.60;98.70;;;;;;5031815;28;20041;-66
2023/08/11 11:11:31;;;;;;;1597.65;999.90;;;32.50;98.70;;;;;;5030674;28;20466;-67
2023/08/11 11:13:58;;;;;;;1591.65;999.90;;;32.50;98.90;;;;;;5032506;28;20035;-66
2023/08/11 11:16:25;;;;;;;1591.25;999.90;;;32.40;99.20;;;;;;5032956;28;20136;-66
2023/08/11 11:18:51;;;;;;;1621.38;999.90;;;32.40;99.20;;;;;;5029668;28;20043;-65
2023/08/11 11:21:19;;;;;;;1604.50;999.90;;;32.40;99.50;;;;;;5022675;28;20025;-65
2023/08/11 11:23:49;;;;;;;1627.85;999.90;;;32.40;99.60;;;;;;5020802;28;20053;-67
2023/08/11 11:26:21;;;;;;;1619.38;999.90;;;32.40;99.60;;;;;;5022842;28;20145;-67
2023/08/11 11:28:51;;;;;;;1615.28;999.90;;;32.30;99.80;;;;;;5020786;28;20054;-66
2023/08/11 11:31:19;;;;;;;1610.57;999.90;;;32.20;99.90;;;;;;5022224;28;20498;-70
2023/08/11 11:33:46;;;;;;;1611.35;999.90;;;32.20;99.90;;;;;;5020554;28;20040;-69
2023/08/11 11:36:13;;;;;;;1612.60;999.90;;;32.10;99.90;;;;;;5020022;28;20029;-69
2023/08/11 11:38:43;;;;;;;1618.38;999.90;;;32.10;99.90;;;;;;5025914;28;20027;-68
2023/08/11 11:41:15;;;;;;;1621.40;999.90;;;32.10;99.90;;;;;;5023942;28;20454;-70
2023/08/11 11:43:41;;;;;;;;;;;32.00;99.90;;;;;;5024112;28;20091;-69
2023/08/11 11:46:19;;;;;;;1602.57;999.90;;;32.00;99.90;;;;;;5032062;28;19909;-70
2023/08/11 11:48:49;;;;;;;1619.97;999.90;;;31.90;99.90;;;;;;5030781;28;20057;-72
2023/08/11 11:51:19;;;;;;;1602.15;999.90;;;31.90;99.90;;;;;;5023066;28;20400;-69
2023/08/11 11:53:46;;;;;;;1578.10;999.90;;;31.80;99.90;;;;;;5020462;28;20018;-68
2023/08/11 11:56:15;;;;;;;1554.88;999.90;;;31.80;99.90;;;;;;5021834;28;20033;-66
2023/08/11 11:58:45;;;;;;;1563.60;999.90;;;31.80;99.90;;;;;;5024455;28;20033;-67
2023/08/11 12:01:15;;;;;;;1534.40;999.90;;;31.70;99.90;;;;;;5022378;28;20468;-67
2023/08/11 12:03:43;;;;;;;1624.28;999.90;;;31.70;99.90;;;;;;5022663;28;20030;-68
2023/08/11 12:06:10;;;;;;;1601.75;999.90;;;31.60;99.90;;;;;;5022237;28;20484;-66
2023/08/11 12:08:37;;;;;;;1520.78;999.90;;;31.60;99.90;;;;;;5021740;28;20034;-65
2023/08/11 12:11:04;;;;;;;1598.05;999.90;;;31.60;99.90;;;;;;5020490;28;20026;-66
2023/08/11 12:13:31;;;;;;;1592.90;999.90;;;31.50;99.90;;;;;;5023589;28;20037;-66
2023/08/11 12:15:59;;;;;;;1575.10;999.90;;;31.50;99.90;;;;;;5025518;28;20025;-65
2023/08/11 12:18:29;;;;;;;1437.40;999.90;;;31.40;99.90;;;;;;5025165;28;20049;-70
2023/08/11 12:20:58;;;;;;;1392.93;999.90;;;31.40;99.90;;;;;;5028122;28;20114;-66
2023/08/11 12:23:26;;;;;;;1110.60;993.00;;;31.20;99.90;;;;;;5025273;28;20026;-68